createdAt,value
2022-08-05T00:01:27.712Z,52.58
2022-08-05T00:06:33.353Z,52.77
2022-08-05T00:11:49.229Z,52.74
2022-08-05T00:16:58.427Z,52.79
2022-08-05T00:22:02.265Z,53.05
2022-08-05T00:27:10.416Z,53.33
2022-08-05T00:32:16.771Z,53.52
2022-08-05T00:37:19.734Z,53.76
2022-08-05T00:42:36.721Z,53.97
2022-08-05T00:47:57.214Z,54.23
2022-08-05T00:53:03.638Z,54.32
2022-08-05T00:58:17.014Z,54.36
2022-08-05T01:03:23.498Z,54.41
2022-08-05T01:08:41.929Z,54.57
2022-08-05T01:14:00.232Z,54.71
2022-08-05T01:19:36.786Z,54.82
2022-08-05T01:25:10.774Z,54.91
2022-08-05T01:30:17.766Z,55.09
2022-08-05T01:35:50.635Z,55.25
2022-08-05T01:40:52.060Z,55.36
2022-08-05T01:45:57.004Z,55.54
2022-08-05T01:51:00.202Z,55.82
2022-08-05T01:58:12.245Z,56.02
2022-08-05T02:01:43.124Z,56.09
2022-08-05T02:06:46.147Z,56.35
2022-08-05T02:12:05.998Z,56.56
2022-08-05T02:18:27.583Z,56.60
2022-08-05T02:22:50.429Z,57.03
2022-08-05T02:27:58.883Z,57.42
2022-08-05T02:33:04.921Z,57.69
2022-08-05T02:38:10.511Z,57.92
2022-08-05T02:43:18.014Z,57.87
2022-08-05T02:48:29.030Z,58.17
2022-08-05T02:53:38.933Z,58.42
2022-08-05T02:58:45.084Z,58.60
2022-08-05T03:04:03.195Z,58.67
2022-08-05T03:09:08.083Z,59.10
2022-08-05T03:14:13.525Z,59.53
2022-08-05T03:19:17.180Z,60.05
2022-08-05T03:24:36.075Z,60.33
2022-08-05T03:29:45.343Z,60.47
2022-08-05T03:35:04.500Z,60.71
2022-08-05T03:40:11.792Z,61.08
2022-08-05T03:45:21.672Z,61.25
2022-08-05T03:50:34.439Z,61.16
2022-08-05T03:56:01.625Z,61.37
2022-08-05T04:01:11.190Z,61.25
2022-08-05T04:06:18.781Z,61.67
2022-08-05T04:11:23.583Z,61.75
2022-08-05T04:16:46.609Z,61.91
2022-08-05T04:22:10.081Z,62.13
2022-08-05T04:27:14.053Z,62.25
2022-08-05T04:32:30.665Z,62.72
2022-08-05T04:38:01.602Z,62.74
2022-08-05T04:42:56.838Z,62.97
2022-08-05T04:48:18.618Z,63.00
2022-08-05T04:53:33.576Z,63.38
2022-08-05T04:58:38.394Z,63.51
2022-08-05T05:03:41.825Z,63.69
2022-08-05T05:08:45.387Z,63.94
2022-08-05T05:13:52.849Z,64.30
2022-08-05T05:19:18.628Z,64.64
2022-08-05T05:24:21.832Z,64.65
2022-08-05T05:29:24.592Z,64.43
2022-08-05T05:34:47.265Z,64.09
2022-08-05T05:39:50.048Z,63.69
2022-08-05T05:44:52.894Z,63.09
2022-08-05T05:50:04.123Z,62.57
2022-08-05T05:55:13.684Z,62.22
2022-08-05T06:00:19.574Z,62.10
2022-08-05T06:05:22.306Z,61.64
2022-08-05T06:10:25.283Z,61.46
2022-08-05T06:16:30.901Z,61.04
2022-08-05T06:20:54.939Z,60.66
2022-08-05T06:26:13.208Z,60.37
2022-08-05T06:31:22.080Z,59.31
2022-08-05T06:36:26.011Z,58.22
2022-08-05T06:41:28.984Z,57.34
2022-08-05T06:46:37.598Z,56.44
2022-08-05T06:51:41.019Z,54.82
2022-08-05T06:56:54.858Z,53.70
2022-08-05T07:02:07.293Z,52.70
2022-08-05T07:07:10.033Z,51.35
2022-08-05T07:12:32.676Z,50.70
2022-08-05T07:17:58.332Z,50.65
2022-08-05T07:22:58.045Z,49.79
2022-08-05T07:28:05.925Z,48.62
2022-08-05T07:33:16.496Z,48.53
2022-08-05T07:38:32.924Z,47.57
2022-08-05T07:43:37.941Z,46.54
2022-08-05T07:49:02.903Z,46.38
2022-08-05T07:54:03.471Z,45.52
2022-08-05T07:59:08.549Z,45.21
2022-08-05T08:04:11.514Z,43.77
2022-08-05T08:09:14.955Z,43.01
2022-08-05T08:14:19.216Z,42.09
2022-08-05T08:20:10.365Z,41.52
2022-08-05T08:24:51.278Z,40.77
2022-08-05T08:30:04.134Z,40.44
2022-08-05T08:35:17.656Z,40.84
2022-08-05T08:40:22.726Z,39.02
2022-08-05T08:45:29.636Z,39.08
2022-08-05T08:51:22.446Z,38.76
2022-08-05T08:56:03.732Z,38.16
2022-08-05T09:01:11.061Z,38.40
2022-08-05T09:06:21.127Z,38.31
2022-08-05T09:11:52.824Z,38.30
2022-08-05T09:16:50.396Z,37.94
2022-08-05T09:22:23.171Z,37.38
2022-08-05T09:28:04.049Z,36.18
2022-08-05T09:33:02.482Z,36.51
2022-08-05T09:38:13.016Z,35.07
2022-08-05T09:43:41.453Z,34.98
2022-08-05T09:49:06.617Z,35.31
2022-08-05T09:54:09.360Z,34.25
2022-08-05T09:59:16.896Z,32.84
2022-08-05T10:04:29.347Z,32.38
2022-08-05T10:09:45.016Z,32.24
2022-08-05T10:14:48.225Z,31.94
2022-08-05T10:20:03.865Z,32.46
2022-08-05T10:25:14.238Z,31.83
2022-08-05T10:32:49.067Z,31.88
2022-08-05T10:35:44.349Z,31.67
2022-08-05T10:40:58.761Z,31.24
2022-08-05T10:46:07.575Z,30.65
2022-08-05T10:51:21.732Z,29.96
2022-08-05T10:56:30.763Z,30.39
2022-08-05T11:02:03.735Z,30.11
2022-08-05T11:07:11.428Z,29.23
2022-08-05T11:12:26.717Z,30.00
2022-08-05T11:17:57.778Z,29.44
2022-08-05T11:22:59.200Z,29.76
2022-08-05T11:28:17.271Z,28.82
2022-08-05T11:33:46.289Z,28.86
2022-08-05T11:38:57.753Z,28.14
2022-08-05T11:44:05.441Z,28.69
2022-08-05T11:49:15.990Z,28.28
2022-08-05T11:54:33.654Z,28.45
2022-08-05T11:59:49.804Z,28.44
2022-08-05T12:04:59.152Z,28.02
2022-08-05T12:10:09.210Z,27.89
2022-08-05T12:15:33.952Z,27.91
2022-08-05T12:20:41.602Z,27.85
2022-08-05T12:25:51.376Z,27.88
2022-08-05T12:30:57.993Z,27.92
2022-08-05T12:36:09.667Z,28.25
2022-08-05T12:41:14.890Z,28.44
2022-08-05T12:46:29.336Z,28.39
2022-08-05T12:52:13.717Z,28.38
2022-08-05T12:57:12.936Z,28.19
2022-08-05T13:02:30.636Z,28.28
2022-08-05T13:07:57.623Z,28.70
2022-08-05T13:12:58.440Z,28.42
2022-08-05T13:18:02.183Z,28.22
2022-08-05T13:23:07.369Z,28.50
2022-08-05T13:28:10.615Z,29.58
2022-08-05T13:33:14.419Z,29.60
2022-08-05T13:38:41.909Z,29.70
2022-08-05T13:43:54.366Z,29.50
2022-08-05T13:49:00.659Z,29.46
2022-08-05T13:54:11.819Z,29.69
2022-08-05T13:59:20.297Z,29.81
2022-08-05T14:04:49.542Z,29.89
2022-08-05T14:09:53.478Z,30.49
2022-08-05T14:14:56.278Z,30.79
2022-08-05T14:20:04.542Z,31.40
2022-08-05T14:25:19.082Z,31.86
2022-08-05T14:30:26.550Z,31.33
2022-08-05T14:35:37.534Z,31.59
2022-08-05T14:40:54.364Z,31.26
2022-08-05T14:45:57.064Z,30.93
2022-08-05T14:50:59.740Z,31.18
2022-08-05T14:56:06.136Z,31.30
2022-08-05T15:01:15.510Z,31.91
2022-08-05T15:06:19.758Z,31.89
2022-08-05T15:11:52.264Z,31.85
2022-08-05T15:16:56.444Z,31.90
2022-08-05T15:22:01.433Z,31.52
2022-08-05T15:27:04.476Z,31.28
2022-08-05T15:32:12.199Z,31.41
2022-08-05T15:37:19.360Z,30.96
2022-08-05T15:42:55.761Z,31.00
2022-08-05T15:48:03.494Z,30.55
2022-08-05T15:53:06.663Z,30.32
2022-08-05T15:58:16.398Z,30.59
2022-08-05T16:03:19.899Z,30.90
2022-08-05T16:08:23.987Z,31.27
2022-08-05T16:13:34.919Z,31.31
2022-08-05T16:18:52.302Z,31.21
2022-08-05T16:23:58.043Z,32.08
2022-08-05T16:29:04.347Z,32.62
2022-08-05T16:34:11.151Z,32.98
2022-08-05T16:39:14.321Z,33.43
2022-08-05T16:44:18.344Z,33.73
2022-08-05T16:49:23.891Z,34.13
2022-08-05T16:54:31.928Z,34.62
2022-08-05T17:00:00.171Z,35.23
2022-08-05T17:04:58.774Z,35.50
2022-08-05T17:10:02.875Z,35.89
2022-08-05T17:15:07.572Z,36.24
2022-08-05T17:20:14.640Z,36.62
2022-08-05T17:25:34.116Z,37.00
2022-08-05T17:30:42.385Z,37.50
2022-08-05T17:36:07.608Z,37.97
2022-08-05T17:42:16.745Z,38.41
2022-08-05T17:46:35.788Z,38.97
2022-08-05T17:51:40.263Z,39.02
2022-08-05T17:56:44.734Z,39.25
2022-08-05T18:01:51.721Z,39.64
2022-08-05T18:06:54.467Z,40.14
2022-08-05T18:12:03.630Z,40.49
2022-08-05T18:17:07.007Z,40.80
2022-08-05T18:22:46.120Z,41.10
2022-08-05T18:27:52.898Z,41.59
2022-08-05T18:33:00.233Z,41.86
2022-08-05T18:38:03.970Z,42.17
2022-08-05T18:43:09.204Z,42.35
2022-08-05T18:48:30.753Z,42.74
2022-08-05T18:53:45.752Z,43.19
2022-08-05T18:58:54.681Z,43.59
2022-08-05T19:03:57.686Z,43.87
2022-08-05T19:09:00.368Z,44.29
2022-08-05T19:14:15.301Z,44.75
2022-08-05T19:19:27.170Z,45.28
2022-08-05T19:24:34.429Z,45.55
2022-08-05T19:29:39.926Z,46.08
2022-08-05T19:34:54.885Z,46.52
2022-08-05T19:39:59.338Z,47.39
2022-08-05T19:45:02.103Z,47.66
2022-08-05T19:50:10.532Z,48.31
2022-08-05T19:56:14.452Z,48.63
2022-08-05T20:00:37.866Z,49.01
2022-08-05T20:05:49.963Z,48.97
2022-08-05T20:10:53.943Z,49.21
2022-08-05T20:15:57.655Z,49.58
2022-08-05T20:21:00.757Z,49.70
2022-08-05T20:26:04.352Z,49.99
2022-08-05T20:31:08.284Z,50.02
2022-08-05T20:36:11.731Z,50.50
2022-08-05T20:41:24.259Z,50.87
2022-08-05T20:46:30.392Z,50.99
2022-08-05T20:51:34.598Z,51.36
2022-08-05T20:56:41.696Z,51.60
2022-08-05T21:01:45.410Z,52.28
2022-08-05T21:06:48.687Z,52.58
2022-08-05T21:12:10.961Z,53.17
2022-08-05T21:17:14.714Z,53.43
2022-08-05T21:22:23.053Z,53.57
2022-08-05T21:27:27.448Z,53.73
2022-08-05T21:32:30.760Z,54.17
2022-08-05T21:37:34.958Z,54.29
2022-08-05T21:42:45.487Z,54.41
2022-08-05T21:47:55.717Z,55.31
2022-08-05T21:53:04.876Z,56.38
2022-08-05T21:58:20.200Z,57.04
2022-08-05T22:03:49.064Z,57.28
2022-08-05T22:08:52.577Z,58.04
2022-08-05T22:14:19.621Z,58.40
2022-08-05T22:19:57.222Z,58.77
2022-08-05T22:25:01.701Z,59.11
2022-08-05T22:30:05.162Z,60.02
2022-08-05T22:35:08.785Z,60.89
2022-08-05T22:40:12.182Z,61.58
2022-08-05T22:45:19.674Z,62.27
2022-08-05T22:50:26.727Z,62.76
2022-08-05T22:55:37.226Z,63.27
2022-08-05T23:00:53.220Z,63.78
2022-08-05T23:06:00.161Z,64.50
2022-08-05T23:11:04.086Z,64.75
2022-08-05T23:16:07.205Z,65.08
2022-08-05T23:21:11.225Z,65.45
2022-08-05T23:26:20.014Z,66.03
2022-08-05T23:31:24.440Z,66.49
2022-08-05T23:36:28.292Z,66.53
2022-08-05T23:41:34.248Z,67.12
2022-08-05T23:46:40.219Z,68.17
2022-08-05T23:52:03.409Z,69.04
2022-08-05T23:57:08.677Z,69.76
